createdAt,value
2019-02-28T00:01:34.130Z,38.20
2019-02-28T00:04:08.690Z,42.43
2019-02-28T00:06:46.711Z,43.65
2019-02-28T00:09:20.444Z,45.40
2019-02-28T00:11:53.705Z,44.48
2019-02-28T00:14:27.755Z,43.10
2019-02-28T00:17:03.133Z,48.77
2019-02-28T00:19:36.420Z,44.90
2019-02-28T00:22:11.398Z,45.17
2019-02-28T00:24:44.905Z,45.33
2019-02-28T00:27:22.013Z,44.83
2019-02-28T00:32:25.944Z,46.45
2019-02-28T00:34:59.322Z,45.35
2019-02-28T00:37:33.454Z,50.88
2019-02-28T00:40:07.580Z,50.58
2019-02-28T00:42:41.180Z,45.23
2019-02-28T00:45:16.457Z,51.05
2019-02-28T00:47:49.745Z,46.77
2019-02-28T00:50:27.634Z,44.63
2019-02-28T00:53:00.669Z,47.05
2019-02-28T00:55:33.898Z,53.13
2019-02-28T00:58:08.288Z,48.15
2019-02-28T01:00:41.523Z,48.63
2019-02-28T01:03:14.959Z,46.88
2019-02-28T01:05:48.366Z,50.90
2019-02-28T01:08:22.818Z,47.23
2019-02-28T01:10:57.546Z,49.63
2019-02-28T01:13:31.355Z,53.08
2019-02-28T01:16:05.319Z,46.25
2019-02-28T01:18:38.767Z,51.85
2019-02-28T01:21:13.641Z,50.78
2019-02-28T01:23:47.105Z,52.93
2019-02-28T01:26:20.467Z,53.15
2019-02-28T01:28:53.839Z,51.83
2019-02-28T01:31:27.160Z,48.45
2019-02-28T01:34:01.367Z,49.75
2019-02-28T01:36:34.761Z,49.33
2019-02-28T01:39:08.898Z,55.67
2019-02-28T01:41:45.019Z,54.80
2019-02-28T01:44:17.906Z,53.10
2019-02-28T01:46:51.404Z,52.83
2019-02-28T01:49:26.010Z,50.90
2019-02-28T01:51:59.989Z,52.27
2019-02-28T01:54:33.566Z,54.27
2019-02-28T01:57:08.933Z,56.92
2019-02-28T01:59:42.554Z,53.98
2019-02-28T02:02:15.896Z,52.53
2019-02-28T02:04:49.631Z,56.70
2019-02-28T02:07:22.965Z,53.13
2019-02-28T02:09:57.444Z,54.95
2019-02-28T02:12:31.796Z,58.13
2019-02-28T02:15:07.079Z,58.27
2019-02-28T02:17:40.420Z,52.58
2019-02-28T02:20:14.852Z,58.78
2019-02-28T02:22:49.328Z,58.38
2019-02-28T02:25:23.669Z,57.60
2019-02-28T02:27:57.187Z,60.05
2019-02-28T02:30:30.475Z,65.60
2019-02-28T02:33:03.950Z,60.65
2019-02-28T02:35:42.204Z,63.33
2019-02-28T02:38:11.998Z,58.93
2019-02-28T02:40:47.750Z,60.08
2019-02-28T02:43:21.968Z,57.97
2019-02-28T02:45:55.932Z,64.82
2019-02-28T02:48:29.460Z,59.15
2019-02-28T02:51:10.647Z,61.98
2019-02-28T02:53:42.176Z,64.42
2019-02-28T02:58:46.721Z,66.57
2019-02-28T03:01:23.107Z,68.55
2019-02-28T03:03:54.586Z,71.35
2019-02-28T03:06:28.264Z,75.40
2019-02-28T03:09:02.662Z,83.00
2019-02-28T03:11:38.024Z,74.50
2019-02-28T03:14:11.403Z,70.65
2019-02-28T03:16:44.814Z,72.60
2019-02-28T03:19:18.104Z,73.65
2019-02-28T03:21:52.859Z,72.03
2019-02-28T03:24:26.540Z,75.65
2019-02-28T03:26:59.854Z,76.37
2019-02-28T03:29:33.331Z,70.60
2019-02-28T03:32:06.931Z,75.25
2019-02-28T03:34:40.211Z,69.15
2019-02-28T03:37:13.732Z,67.72
2019-02-28T03:39:47.982Z,64.05
2019-02-28T03:42:28.625Z,68.67
2019-02-28T03:48:00.296Z,70.32
2019-02-28T03:50:33.878Z,71.62
2019-02-28T03:53:07.248Z,78.95
2019-02-28T03:55:41.578Z,63.17
2019-02-28T04:00:49.047Z,76.30
2019-02-28T04:03:22.500Z,84.52
2019-02-28T04:06:03.285Z,65.35
2019-02-28T04:08:30.848Z,65.28
2019-02-28T04:11:04.720Z,64.03
2019-02-28T04:13:37.863Z,63.17
2019-02-28T04:16:11.139Z,73.15
2019-02-28T04:18:46.491Z,68.30
2019-02-28T04:21:23.142Z,57.95
2019-02-28T04:23:56.579Z,64.62
2019-02-28T04:26:30.080Z,62.08
2019-02-28T04:29:04.282Z,64.12
2019-02-28T04:31:38.953Z,64.20
2019-02-28T04:34:13.411Z,64.22
2019-02-28T04:36:46.885Z,73.40
2019-02-28T04:39:22.734Z,62.30
2019-02-28T04:41:57.979Z,61.40
2019-02-28T04:44:31.722Z,64.25
2019-02-28T04:47:06.834Z,60.08
2019-02-28T04:49:39.775Z,67.77
2019-02-28T04:52:14.143Z,65.60
2019-02-28T04:54:47.530Z,69.12
2019-02-28T04:57:21.920Z,62.62
2019-02-28T04:59:55.311Z,60.70
2019-02-28T05:02:31.139Z,60.20
2019-02-28T05:05:04.625Z,54.27
2019-02-28T05:07:38.085Z,64.25
2019-02-28T05:10:11.917Z,58.48
2019-02-28T05:12:46.262Z,62.00
2019-02-28T05:15:22.546Z,59.10
2019-02-28T05:17:57.135Z,59.93
2019-02-28T05:20:30.381Z,58.25
2019-02-28T05:23:06.580Z,61.83
2019-02-28T05:25:39.975Z,60.90
2019-02-28T05:28:14.418Z,55.70
2019-02-28T05:30:50.198Z,58.30
2019-02-28T05:33:26.168Z,65.40
2019-02-28T05:36:04.056Z,56.13
2019-02-28T05:38:36.268Z,59.80
2019-02-28T05:41:12.215Z,67.03
2019-02-28T05:43:45.537Z,59.90
2019-02-28T05:46:20.325Z,54.75
2019-02-28T05:48:54.777Z,56.92
2019-02-28T05:51:28.202Z,62.95
2019-02-28T05:54:01.595Z,60.95
2019-02-28T05:56:34.968Z,60.65
2019-02-28T05:59:08.315Z,64.92
2019-02-28T06:01:46.866Z,65.28
2019-02-28T06:04:18.337Z,64.75
2019-02-28T06:06:54.715Z,67.53
2019-02-28T06:09:27.862Z,64.77
2019-02-28T06:12:01.092Z,66.92
2019-02-28T06:14:34.422Z,65.75
2019-02-28T06:17:07.619Z,63.05
2019-02-28T06:19:43.549Z,57.85
2019-02-28T06:22:15.477Z,61.28
2019-02-28T06:24:48.655Z,62.15
2019-02-28T06:27:24.140Z,56.48
2019-02-28T06:29:56.779Z,67.70
2019-02-28T06:32:31.739Z,64.27
2019-02-28T06:35:04.758Z,61.92
2019-02-28T06:37:39.285Z,67.45
2019-02-28T06:40:15.129Z,59.85
2019-02-28T06:42:48.551Z,67.40
2019-02-28T06:45:22.429Z,60.92
2019-02-28T06:47:56.431Z,67.20
2019-02-28T06:50:29.846Z,64.05
2019-02-28T06:53:03.728Z,67.70
2019-02-28T06:55:39.901Z,65.60
2019-02-28T06:58:13.707Z,63.35
2019-02-28T07:00:50.425Z,62.55
2019-02-28T07:03:35.345Z,60.65
2019-02-28T07:06:09.351Z,61.95
2019-02-28T07:08:46.630Z,63.40
2019-02-28T07:11:21.490Z,61.65
2019-02-28T07:13:54.802Z,69.65
2019-02-28T07:16:30.741Z,64.53
2019-02-28T07:19:03.846Z,60.90
2019-02-28T07:21:42.973Z,60.33
2019-02-28T07:24:13.217Z,71.17
2019-02-28T07:26:48.213Z,62.85
2019-02-28T07:29:23.326Z,58.33
2019-02-28T07:31:59.847Z,58.90
2019-02-28T07:34:31.517Z,60.60
2019-02-28T07:37:05.946Z,58.98
2019-02-28T07:39:40.274Z,62.62
2019-02-28T07:42:15.308Z,68.07
2019-02-28T07:44:48.611Z,63.90
2019-02-28T07:47:25.390Z,63.85
2019-02-28T07:50:03.927Z,65.30
2019-02-28T07:52:40.111Z,60.83
2019-02-28T07:55:20.168Z,61.55
2019-02-28T07:57:56.472Z,59.33
2019-02-28T08:00:28.102Z,62.15
2019-02-28T08:03:01.371Z,63.40
2019-02-28T08:05:37.303Z,60.63
2019-02-28T08:08:10.715Z,59.10
2019-02-28T08:10:44.097Z,62.15
2019-02-28T08:13:17.472Z,58.25
2019-02-28T08:15:53.338Z,57.38
2019-02-28T08:18:28.247Z,62.35
2019-02-28T08:21:01.564Z,57.20
2019-02-28T08:23:37.491Z,54.73
2019-02-28T08:28:42.746Z,55.92
2019-02-28T08:31:16.099Z,58.98
2019-02-28T08:33:49.465Z,60.05
2019-02-28T08:36:22.717Z,58.73
2019-02-28T08:38:56.139Z,63.60
2019-02-28T08:41:29.490Z,62.50
2019-02-28T08:44:02.682Z,68.20
2019-02-28T08:46:36.118Z,62.38
2019-02-28T08:49:10.042Z,74.25
2019-02-28T08:52:05.591Z,72.40
2019-02-28T08:54:38.268Z,72.62
2019-02-28T08:57:12.943Z,69.00
2019-02-28T08:59:46.561Z,77.97
2019-02-28T09:02:20.112Z,78.33
2019-02-28T09:04:53.687Z,71.62
2019-02-28T09:07:27.132Z,71.92
2019-02-28T09:10:00.469Z,73.22
2019-02-28T09:12:34.136Z,70.15
2019-02-28T09:15:08.013Z,80.70
2019-02-28T09:17:41.322Z,79.47
2019-02-28T09:20:16.105Z,80.35
2019-02-28T09:22:49.605Z,71.72
2019-02-28T09:25:23.865Z,69.12
2019-02-28T09:27:57.051Z,73.12
2019-02-28T09:30:32.550Z,79.53
2019-02-28T09:33:06.848Z,73.45
2019-02-28T09:35:46.408Z,77.67
2019-02-28T09:38:19.762Z,71.35
2019-02-28T09:40:53.230Z,77.72
2019-02-28T09:43:26.565Z,91.35
2019-02-28T09:46:00.180Z,72.95
2019-02-28T09:48:33.956Z,71.67
2019-02-28T09:51:08.536Z,67.78
2019-02-28T09:53:42.487Z,69.03
2019-02-28T09:56:15.841Z,68.87
2019-02-28T09:58:49.558Z,72.80
2019-02-28T10:01:24.463Z,74.40
2019-02-28T10:03:57.777Z,75.42
2019-02-28T10:06:33.282Z,70.28
2019-02-28T10:09:17.565Z,75.83
2019-02-28T10:11:51.100Z,75.75
2019-02-28T10:14:25.633Z,70.10
2019-02-28T10:16:59.926Z,84.93
2019-02-28T10:19:33.404Z,72.12
2019-02-28T10:22:10.138Z,70.67
2019-02-28T10:24:44.782Z,71.42
2019-02-28T10:27:18.092Z,67.42
2019-02-28T10:29:51.232Z,74.00
2019-02-28T10:32:24.569Z,67.15
2019-02-28T10:34:58.336Z,75.37
2019-02-28T10:37:32.748Z,65.87
2019-02-28T10:40:08.687Z,65.67
2019-02-28T10:42:43.369Z,69.17
2019-02-28T10:45:17.262Z,70.40
2019-02-28T10:47:50.716Z,76.67
2019-02-28T10:50:33.140Z,71.07
2019-02-28T10:53:07.645Z,81.40
2019-02-28T10:55:41.276Z,70.55
2019-02-28T10:58:15.468Z,80.70
2019-02-28T11:00:49.902Z,81.40
2019-02-28T11:03:23.811Z,88.87
2019-02-28T11:05:57.112Z,82.62
2019-02-28T11:08:30.495Z,79.17
2019-02-28T11:11:07.315Z,77.58
2019-02-28T11:16:23.637Z,77.10
2019-02-28T11:18:57.725Z,85.35
2019-02-28T11:21:31.801Z,86.15
2019-02-28T11:24:05.611Z,95.00
2019-02-28T11:26:41.289Z,80.15
2019-02-28T11:29:14.140Z,79.12
2019-02-28T11:31:50.604Z,75.65
2019-02-28T11:34:23.383Z,81.53
2019-02-28T11:36:58.407Z,75.87
2019-02-28T11:39:33.670Z,72.62
2019-02-28T11:42:07.831Z,89.90
2019-02-28T11:44:43.551Z,84.70
2019-02-28T11:47:15.844Z,80.83
2019-02-28T11:49:49.221Z,70.78
2019-02-28T11:52:24.426Z,84.32
2019-02-28T11:55:00.525Z,83.15
2019-02-28T11:57:37.757Z,72.92
2019-02-28T12:00:17.116Z,77.10
2019-02-28T12:03:04.802Z,73.57
2019-02-28T12:05:37.987Z,77.85
2019-02-28T12:08:11.371Z,80.53
2019-02-28T12:10:47.824Z,78.47
2019-02-28T12:13:21.633Z,77.72
2019-02-28T12:15:56.092Z,77.00
2019-02-28T12:18:29.282Z,81.37
2019-02-28T12:21:08.369Z,75.95
2019-02-28T12:23:44.757Z,78.47
2019-02-28T12:26:18.830Z,82.97
2019-02-28T12:28:56.944Z,75.57
2019-02-28T12:31:36.505Z,75.37
2019-02-28T12:34:11.140Z,75.97
2019-02-28T12:36:49.316Z,71.50
2019-02-28T12:39:36.391Z,80.12
2019-02-28T12:42:11.167Z,74.17
2019-02-28T12:44:46.277Z,73.22
2019-02-28T12:47:19.234Z,80.13
2019-02-28T12:49:54.290Z,77.27
2019-02-28T12:52:28.870Z,76.53
2019-02-28T12:55:05.788Z,79.67
2019-02-28T12:57:42.419Z,79.70
2019-02-28T13:00:23.386Z,72.67
2019-02-28T13:02:59.202Z,72.90
2019-02-28T13:05:36.249Z,67.35
2019-02-28T13:08:11.052Z,69.12
2019-02-28T13:10:48.273Z,75.85
2019-02-28T13:13:28.909Z,68.87
2019-02-28T13:16:04.653Z,74.17
2019-02-28T13:18:43.410Z,70.70
2019-02-28T13:21:16.469Z,76.37
2019-02-28T13:23:50.950Z,75.35
2019-02-28T13:26:25.776Z,74.62
2019-02-28T13:31:36.117Z,70.37
2019-02-28T13:34:11.582Z,72.22
2019-02-28T13:36:45.897Z,72.60
2019-02-28T13:39:19.544Z,67.62
2019-02-28T13:41:53.937Z,74.87
2019-02-28T13:44:31.654Z,72.17
2019-02-28T13:47:09.327Z,69.57
2019-02-28T13:49:49.865Z,70.55
2019-02-28T13:52:28.766Z,68.45
2019-02-28T13:55:06.944Z,69.85
2019-02-28T13:57:45.723Z,74.00
2019-02-28T14:00:23.669Z,71.42
2019-02-28T14:03:01.355Z,73.28
2019-02-28T14:05:41.439Z,66.07
2019-02-28T14:08:17.295Z,67.37
2019-02-28T14:10:55.282Z,71.60
2019-02-28T14:13:30.026Z,72.70
2019-02-28T14:16:04.674Z,72.37
2019-02-28T14:21:34.416Z,70.97
2019-02-28T14:24:13.679Z,76.50
2019-02-28T14:26:49.542Z,77.12
2019-02-28T14:29:51.958Z,74.58
2019-02-28T14:32:25.963Z,72.70
2019-02-28T14:35:00.831Z,68.20
2019-02-28T14:37:38.077Z,77.03
2019-02-28T14:40:26.488Z,80.20
2019-02-28T14:43:00.622Z,69.03
2019-02-28T14:45:42.908Z,74.92
2019-02-28T14:48:20.251Z,70.97
2019-02-28T14:50:56.020Z,76.92
2019-02-28T14:53:29.617Z,66.25
2019-02-28T14:56:04.455Z,68.87
2019-02-28T14:58:39.824Z,71.60
2019-02-28T15:01:18.052Z,66.90
2019-02-28T15:03:52.107Z,72.78
2019-02-28T15:06:29.597Z,69.40
2019-02-28T15:09:06.102Z,74.03
2019-02-28T15:11:50.321Z,73.30
2019-02-28T15:14:22.033Z,68.00
2019-02-28T15:16:58.032Z,77.05
2019-02-28T15:19:34.719Z,77.15
2019-02-28T15:22:08.443Z,72.45
2019-02-28T15:24:43.763Z,78.78
2019-02-28T15:27:20.461Z,81.73
2019-02-28T15:29:55.543Z,78.28
2019-02-28T15:32:36.822Z,74.10
2019-02-28T15:35:15.373Z,81.12
2019-02-28T15:38:01.014Z,88.52
2019-02-28T15:40:43.663Z,74.15
2019-02-28T15:43:19.871Z,82.30
2019-02-28T15:45:54.934Z,83.60
2019-02-28T15:48:34.519Z,87.30
2019-02-28T15:51:06.840Z,76.97
2019-02-28T15:53:53.103Z,83.33
2019-02-28T15:56:30.283Z,79.30
2019-02-28T15:59:07.056Z,86.72
2019-02-28T16:01:43.790Z,82.45
2019-02-28T16:04:23.512Z,82.20
2019-02-28T16:06:59.748Z,82.17
2019-02-28T16:09:39.593Z,80.28
2019-02-28T16:12:16.420Z,83.75
2019-02-28T16:14:51.358Z,86.82
2019-02-28T16:17:27.447Z,97.00
2019-02-28T16:20:07.118Z,88.92
2019-02-28T16:22:45.173Z,83.40
2019-02-28T16:25:26.882Z,93.80
2019-02-28T16:28:01.169Z,91.30
2019-02-28T16:30:38.575Z,94.85
2019-02-28T16:33:14.692Z,86.63
2019-02-28T16:35:53.387Z,83.17
2019-02-28T16:38:30.754Z,90.25
2019-02-28T16:41:04.151Z,80.15
2019-02-28T16:43:40.606Z,87.40
2019-02-28T16:46:17.895Z,94.20
2019-02-28T16:49:11.245Z,87.37
2019-02-28T16:51:43.600Z,88.90
2019-02-28T16:54:22.548Z,86.12
2019-02-28T16:57:01.136Z,82.50
2019-02-28T16:59:35.832Z,85.90
2019-02-28T17:02:11.406Z,87.30
2019-02-28T17:04:48.597Z,91.82
2019-02-28T17:07:21.168Z,91.08
2019-02-28T17:09:57.781Z,93.87
2019-02-28T17:12:34.272Z,93.82
2019-02-28T17:15:13.814Z,89.47
2019-02-28T17:17:53.458Z,89.07
2019-02-28T17:20:31.766Z,94.22
2019-02-28T17:23:08.128Z,96.30
2019-02-28T17:25:42.629Z,88.70
2019-02-28T17:28:17.483Z,90.87
2019-02-28T17:31:11.527Z,104.35
2019-02-28T17:33:46.919Z,95.35
2019-02-28T17:36:20.908Z,93.07
2019-02-28T17:38:54.440Z,89.75
2019-02-28T17:41:27.961Z,91.85
2019-02-28T17:44:28.243Z,85.00
2019-02-28T17:47:28.346Z,94.90
2019-02-28T17:50:21.519Z,93.70
2019-02-28T17:53:21.577Z,88.35
2019-02-28T17:56:08.917Z,94.50
2019-02-28T17:58:53.137Z,95.28
2019-02-28T18:01:37.007Z,90.92
2019-02-28T18:04:31.303Z,98.20
2019-02-28T18:07:32.650Z,98.67
2019-02-28T18:10:15.212Z,105.90
2019-02-28T18:13:07.743Z,93.03
2019-02-28T18:15:46.944Z,103.50
2019-02-28T18:18:34.239Z,95.90
2019-02-28T18:21:21.826Z,100.20
2019-02-28T18:24:13.485Z,88.35
2019-02-28T18:26:51.920Z,99.52
2019-02-28T18:29:43.875Z,100.92
2019-02-28T18:32:17.235Z,102.80
2019-02-28T18:34:52.687Z,106.32
2019-02-28T18:37:25.492Z,92.72
2019-02-28T18:39:58.970Z,105.03
2019-02-28T18:42:32.318Z,109.05
2019-02-28T18:45:05.733Z,109.20
2019-02-28T18:47:43.418Z,104.85
2019-02-28T18:50:16.931Z,105.90
2019-02-28T18:52:50.460Z,112.30
2019-02-28T18:55:23.842Z,121.82
2019-02-28T18:57:57.354Z,129.42
2019-02-28T19:00:30.807Z,109.00
2019-02-28T19:03:04.226Z,103.80
2019-02-28T19:05:37.687Z,98.60
2019-02-28T19:08:11.254Z,96.70
2019-02-28T19:10:44.635Z,100.35
2019-02-28T19:13:18.092Z,98.37
2019-02-28T19:15:52.579Z,110.10
2019-02-28T19:18:25.919Z,111.75
2019-02-28T19:21:00.407Z,103.55
2019-02-28T19:23:33.856Z,102.45
2019-02-28T19:26:07.434Z,99.58
2019-02-28T19:28:40.845Z,104.10
2019-02-28T19:31:14.266Z,105.10
2019-02-28T19:33:47.782Z,90.10
2019-02-28T19:36:21.303Z,92.92
2019-02-28T19:38:55.057Z,102.20
2019-02-28T19:41:28.718Z,97.65
2019-02-28T19:44:02.159Z,99.22
2019-02-28T19:46:36.545Z,93.12
2019-02-28T19:49:10.058Z,92.65
2019-02-28T19:51:43.679Z,95.90
2019-02-28T19:54:17.113Z,92.27
2019-02-28T19:56:50.676Z,98.07
2019-02-28T19:59:24.372Z,105.05
2019-02-28T20:01:59.024Z,91.02
2019-02-28T20:04:32.861Z,96.45
2019-02-28T20:07:06.580Z,106.30
2019-02-28T20:09:50.975Z,104.55
2019-02-28T20:12:24.565Z,104.95
2019-02-28T20:14:58.099Z,98.72
2019-02-28T20:17:31.451Z,106.72
2019-02-28T20:20:05.168Z,115.92
2019-02-28T20:22:38.981Z,116.73
2019-02-28T20:25:14.524Z,121.07
2019-02-28T20:30:20.597Z,109.83
2019-02-28T20:32:54.506Z,99.85
2019-02-28T20:35:28.125Z,118.87
2019-02-28T20:38:01.650Z,118.05
2019-02-28T20:40:36.789Z,126.22
2019-02-28T20:43:10.163Z,119.08
2019-02-28T20:45:44.705Z,109.37
2019-02-28T20:48:19.334Z,114.32
2019-02-28T20:50:54.031Z,109.67
2019-02-28T20:53:27.567Z,126.00
2019-02-28T20:56:02.008Z,135.65
2019-02-28T20:58:35.739Z,113.85
2019-02-28T21:01:09.498Z,127.60
2019-02-28T21:03:43.036Z,110.17
2019-02-28T21:06:16.577Z,112.57
2019-02-28T21:08:49.955Z,109.20
2019-02-28T21:11:23.411Z,108.37
2019-02-28T21:13:57.031Z,106.90
2019-02-28T21:16:31.387Z,108.85
2019-02-28T21:19:06.421Z,108.87
2019-02-28T21:21:48.263Z,110.90
2019-02-28T21:24:21.777Z,110.55
2019-02-28T21:26:55.311Z,128.27
2019-02-28T21:29:28.864Z,116.08
2019-02-28T21:32:02.182Z,116.08
2019-02-28T21:34:35.496Z,115.08
2019-02-28T21:37:09.126Z,103.00
2019-02-28T21:39:42.610Z,111.10
2019-02-28T21:42:16.549Z,112.95
2019-02-28T21:44:49.997Z,115.12
2019-02-28T21:47:23.492Z,120.47
2019-02-28T21:49:57.031Z,117.82
2019-02-28T21:52:31.431Z,124.22
2019-02-28T21:55:04.910Z,115.67
2019-02-28T21:57:39.067Z,111.65
2019-02-28T22:00:14.940Z,119.62
2019-02-28T22:02:50.974Z,105.85
2019-02-28T22:05:24.381Z,120.35
2019-02-28T22:07:57.576Z,113.37
2019-02-28T22:10:30.861Z,109.35
2019-02-28T22:13:05.317Z,113.40
2019-02-28T22:15:38.842Z,117.97
2019-02-28T22:18:12.312Z,112.52
2019-02-28T22:20:46.695Z,118.33
2019-02-28T22:23:20.194Z,101.92
2019-02-28T22:25:53.619Z,115.30
2019-02-28T22:28:26.836Z,98.67
2019-02-28T22:31:02.903Z,115.97
2019-02-28T22:33:40.711Z,110.40
2019-02-28T22:36:15.533Z,103.32
2019-02-28T22:38:49.103Z,107.35
2019-02-28T22:41:22.482Z,107.50
2019-02-28T22:43:55.712Z,104.97
2019-02-28T22:46:29.328Z,112.45
2019-02-28T22:49:02.675Z,105.70
2019-02-28T22:51:35.903Z,101.55
2019-02-28T22:54:09.311Z,107.05
2019-02-28T22:56:42.866Z,103.90
2019-02-28T22:59:16.351Z,95.83
2019-02-28T23:01:49.882Z,97.62
2019-02-28T23:04:23.400Z,105.97
2019-02-28T23:06:58.124Z,110.30
2019-02-28T23:09:31.578Z,102.17
2019-02-28T23:12:05.370Z,94.05
2019-02-28T23:14:38.724Z,103.90
2019-02-28T23:17:12.548Z,104.12
2019-02-28T23:19:46.064Z,97.92
2019-02-28T23:22:20.823Z,105.25
2019-02-28T23:24:55.196Z,101.33
2019-02-28T23:27:28.600Z,104.40
2019-02-28T23:30:05.190Z,101.02
2019-02-28T23:32:45.337Z,112.50
2019-02-28T23:35:24.008Z,108.17
2019-02-28T23:37:57.300Z,117.70
2019-02-28T23:40:30.787Z,111.57
2019-02-28T23:43:04.383Z,109.78
2019-02-28T23:45:37.583Z,113.90
2019-02-28T23:48:11.088Z,108.85
2019-02-28T23:50:44.572Z,120.75
2019-02-28T23:53:19.060Z,114.20
2019-02-28T23:55:52.494Z,116.88
2019-02-28T23:58:25.928Z,126.00
